createdAt,value
2023-05-23T00:00:20.531Z,8.40
2023-05-23T00:05:22.183Z,8.40
2023-05-23T00:10:23.728Z,8.40
2023-05-23T00:15:25.536Z,8.50
2023-05-23T00:20:27.617Z,8.00
2023-05-23T00:25:34.156Z,10.10
2023-05-23T00:30:35.983Z,10.20
2023-05-23T00:35:37.788Z,11.10
2023-05-23T00:40:39.448Z,9.90
2023-05-23T00:45:41.306Z,10.30
2023-05-23T00:50:43.163Z,9.80
2023-05-23T00:55:45.344Z,11.60
2023-05-23T01:00:50.449Z,10.00
2023-05-23T01:05:52.924Z,9.10
2023-05-23T01:10:56.997Z,9.90
2023-05-23T01:16:24.407Z,8.80
2023-05-23T01:21:27.180Z,10.20
2023-05-23T01:26:40.965Z,10.40
2023-05-23T01:31:48.802Z,9.70
2023-05-23T01:36:55.526Z,10.60
2023-05-23T01:41:57.305Z,9.40
2023-05-23T01:46:59.325Z,10.70
2023-05-23T01:52:01.868Z,8.70
2023-05-23T01:57:04.968Z,8.10
2023-05-23T02:02:06.604Z,7.60
2023-05-23T02:07:08.429Z,7.00
2023-05-23T02:12:10.199Z,6.50
2023-05-23T02:17:11.837Z,7.10
2023-05-23T02:22:13.944Z,6.80
2023-05-23T02:27:15.562Z,8.10
2023-05-23T02:32:17.259Z,6.30
2023-05-23T02:37:18.784Z,7.20
2023-05-23T02:42:20.319Z,7.60
2023-05-23T02:47:21.952Z,6.10
2023-05-23T02:52:25.293Z,6.90
2023-05-23T02:57:26.868Z,7.50
2023-05-23T03:02:28.578Z,7.80
2023-05-23T03:07:30.482Z,8.00
2023-05-23T03:12:32.013Z,8.10
2023-05-23T03:17:33.611Z,6.40
2023-05-23T03:22:36.579Z,6.60
2023-05-23T03:27:38.159Z,6.30
2023-05-23T03:32:39.878Z,6.40
2023-05-23T03:37:41.513Z,6.40
2023-05-23T03:42:43.024Z,7.10
2023-05-23T03:47:44.651Z,6.50
2023-05-23T03:52:46.291Z,7.20
2023-05-23T03:57:49.258Z,6.90
2023-05-23T04:02:52.152Z,6.40
2023-05-23T04:07:54.069Z,6.40
2023-05-23T04:12:56.881Z,6.70
2023-05-23T04:23:00.216Z,6.20
2023-05-23T04:28:01.795Z,7.40
2023-05-23T04:33:03.941Z,6.60
2023-05-23T04:38:05.620Z,6.30
2023-05-23T04:43:09.405Z,6.30
2023-05-23T04:48:13.296Z,6.70
2023-05-23T04:53:14.943Z,6.70
2023-05-23T04:58:16.617Z,6.60
2023-05-23T05:03:18.770Z,6.60
2023-05-23T05:08:20.374Z,7.40
2023-05-23T05:13:22.074Z,6.00
2023-05-23T05:18:23.600Z,10.20
2023-05-23T05:23:28.917Z,8.00
2023-05-23T05:28:30.562Z,7.60
2023-05-23T05:33:36.363Z,6.90
2023-05-23T05:38:38.225Z,7.40
2023-05-23T05:43:39.821Z,8.00
2023-05-23T05:48:41.488Z,8.30
2023-05-23T05:53:43.122Z,8.70
2023-05-23T05:58:44.802Z,8.60
2023-05-23T06:03:46.543Z,8.60
2023-05-23T06:08:48.340Z,9.50
2023-05-23T06:13:49.940Z,8.20
2023-05-23T06:18:53.235Z,7.70
2023-05-23T06:23:54.991Z,5.90
2023-05-23T06:28:56.748Z,6.40
2023-05-23T06:33:58.401Z,6.00
2023-05-23T06:38:59.928Z,6.10
2023-05-23T06:44:01.646Z,6.70
2023-05-23T06:49:14.218Z,6.50
2023-05-23T06:54:16.625Z,5.00
2023-05-23T06:59:19.366Z,6.60
2023-05-23T07:04:20.914Z,5.00
2023-05-23T07:09:22.684Z,5.00
2023-05-23T07:14:24.305Z,4.00
2023-05-23T07:19:25.925Z,4.20
2023-05-23T07:24:27.530Z,4.20
2023-05-23T07:29:29.222Z,3.30
2023-05-23T07:34:31.329Z,3.80
2023-05-23T07:39:32.894Z,3.70
2023-05-23T07:44:34.419Z,3.00
2023-05-23T07:49:36.031Z,3.50
2023-05-23T07:54:40.801Z,3.40
2023-05-23T07:59:42.505Z,7.40
2023-05-23T08:04:45.416Z,5.40
2023-05-23T08:09:47.234Z,3.90
2023-05-23T08:14:51.826Z,3.40
2023-05-23T08:19:54.176Z,3.20
2023-05-23T08:24:56.181Z,3.30
2023-05-23T08:29:58.247Z,2.60
2023-05-23T08:34:59.775Z,4.40
2023-05-23T08:40:01.933Z,5.40
2023-05-23T08:45:03.792Z,3.10
2023-05-23T08:50:08.219Z,3.20
2023-05-23T08:55:11.534Z,3.00
2023-05-23T09:00:15.093Z,3.10
2023-05-23T09:05:17.097Z,3.00
2023-05-23T09:10:22.078Z,3.40
2023-05-23T09:15:24.135Z,2.90
2023-05-23T09:20:25.664Z,3.10
2023-05-23T09:25:27.270Z,3.00
2023-05-23T09:30:37.661Z,2.90
2023-05-23T09:35:44.504Z,2.60
2023-05-23T09:40:46.113Z,3.40
2023-05-23T09:45:47.633Z,3.00
2023-05-23T09:50:51.499Z,2.70
2023-05-23T09:55:54.956Z,2.90
2023-05-23T10:00:58.192Z,2.90
2023-05-23T10:06:16.715Z,2.60
2023-05-23T10:12:16.095Z,3.10
2023-05-23T10:17:22.300Z,3.20
2023-05-23T10:22:25.531Z,3.20
2023-05-23T10:27:27.863Z,3.10
2023-05-23T10:32:31.240Z,2.40
2023-05-23T10:37:46.963Z,2.90
2023-05-23T10:42:59.421Z,2.40
2023-05-23T10:48:01.042Z,3.20
2023-05-23T10:53:07.049Z,3.10
2023-05-23T10:58:30.201Z,3.30
2023-05-23T11:03:35.401Z,3.30
2023-05-23T11:08:47.839Z,2.90
2023-05-23T11:13:53.063Z,3.20
2023-05-23T11:19:19.571Z,3.50
2023-05-23T11:24:22.809Z,3.30
2023-05-23T11:29:26.602Z,4.00
2023-05-23T11:34:28.372Z,3.40
2023-05-23T11:39:29.919Z,3.60
2023-05-23T11:44:31.524Z,3.10
2023-05-23T11:49:38.109Z,3.90
2023-05-23T11:54:46.495Z,3.60
2023-05-23T11:59:48.181Z,3.00
2023-05-23T12:04:49.709Z,5.10
2023-05-23T12:09:55.817Z,3.20
2023-05-23T12:14:58.105Z,4.10
2023-05-23T12:20:00.576Z,3.60
2023-05-23T12:25:02.813Z,3.10
2023-05-23T12:30:06.572Z,3.80
2023-05-23T12:35:16.629Z,4.00
2023-05-23T12:40:19.466Z,3.40
2023-05-23T12:45:36.722Z,3.80
2023-05-23T12:50:39.310Z,3.80
2023-05-23T12:55:41.134Z,3.60
2023-05-23T13:05:44.563Z,3.60
2023-05-23T13:10:46.278Z,3.60
2023-05-23T13:15:50.630Z,3.40
2023-05-23T13:20:52.984Z,3.60
2023-05-23T13:25:54.564Z,4.00
2023-05-23T13:30:56.368Z,3.90
2023-05-23T13:35:58.662Z,4.00
2023-05-23T13:41:00.290Z,4.30
2023-05-23T13:46:03.134Z,4.60
2023-05-23T13:51:05.285Z,4.90
2023-05-23T13:56:07.528Z,4.30
2023-05-23T14:01:09.516Z,4.10
2023-05-23T14:11:12.637Z,4.00
2023-05-23T14:16:21.031Z,3.70
2023-05-23T14:21:23.945Z,4.10
2023-05-23T14:26:26.543Z,4.20
2023-05-23T14:31:28.166Z,3.80
2023-05-23T14:36:29.800Z,4.00
2023-05-23T14:41:31.926Z,4.10
2023-05-23T14:46:33.529Z,4.10
2023-05-23T14:51:47.436Z,4.40
2023-05-23T14:56:53.416Z,3.80
2023-05-23T15:01:55.300Z,4.60
2023-05-23T15:06:57.252Z,5.50
2023-05-23T15:11:59.583Z,4.80
2023-05-23T15:17:07.868Z,4.20
2023-05-23T15:22:13.188Z,5.30
2023-05-23T15:27:22.314Z,4.50
2023-05-23T15:32:24.106Z,5.20
2023-05-23T15:37:25.748Z,4.80
2023-05-23T15:42:27.560Z,4.00
2023-05-23T15:47:29.406Z,4.80
2023-05-23T15:57:33.650Z,4.90
2023-05-23T16:02:35.195Z,3.80
2023-05-23T16:07:36.961Z,4.70
2023-05-23T16:12:38.514Z,4.90
2023-05-23T16:17:40.039Z,4.70
2023-05-23T16:22:41.862Z,4.50
2023-05-23T16:32:44.879Z,4.10
2023-05-23T16:37:46.513Z,4.30
2023-05-23T16:42:48.109Z,4.90
2023-05-23T16:47:49.993Z,4.60
2023-05-23T16:52:51.643Z,7.00
2023-05-23T16:57:56.107Z,4.70
2023-05-23T17:02:57.790Z,5.30
2023-05-23T17:07:59.626Z,4.60
2023-05-23T17:13:01.169Z,4.40
2023-05-23T17:18:02.866Z,5.20
2023-05-23T17:23:05.510Z,5.10
2023-05-23T17:28:07.218Z,5.60
2023-05-23T17:33:10.836Z,6.10
2023-05-23T17:38:12.487Z,6.00
2023-05-23T17:43:14.046Z,6.10
2023-05-23T17:48:15.866Z,7.20
2023-05-23T17:53:18.069Z,5.90
2023-05-23T17:58:21.597Z,7.30
2023-05-23T18:03:24.383Z,7.90
2023-05-23T18:08:25.944Z,15.20
2023-05-23T18:13:27.511Z,5.50
2023-05-23T18:18:29.178Z,4.80
2023-05-23T18:23:30.797Z,5.60
2023-05-23T18:28:32.544Z,6.10
2023-05-23T18:33:34.102Z,6.80
2023-05-23T18:38:36.333Z,6.80
2023-05-23T18:43:37.985Z,28.90
2023-05-23T18:48:40.748Z,7.00
2023-05-23T18:53:43.262Z,7.30
2023-05-23T18:58:46.749Z,6.90
2023-05-23T19:03:49.050Z,8.00
2023-05-23T19:08:50.872Z,8.50
2023-05-23T19:13:52.453Z,8.20
2023-05-23T19:18:54.019Z,8.50
2023-05-23T19:23:56.550Z,8.50
2023-05-23T19:33:59.538Z,8.40
2023-05-23T19:39:01.763Z,9.90
2023-05-23T19:44:03.442Z,14.40
2023-05-23T19:49:08.126Z,14.50
2023-05-23T19:54:09.725Z,12.00
2023-05-23T19:59:11.537Z,9.70
2023-05-23T20:04:13.247Z,9.50
2023-05-23T20:09:14.968Z,9.90
2023-05-23T20:14:16.632Z,8.80
2023-05-23T20:19:18.250Z,8.90
2023-05-23T20:24:19.839Z,9.40
2023-05-23T20:29:21.651Z,9.20
2023-05-23T20:34:23.169Z,7.40
2023-05-23T20:39:24.754Z,7.90
2023-05-23T20:44:26.952Z,7.40
2023-05-23T20:49:28.503Z,8.30
2023-05-23T20:54:30.020Z,8.00
2023-05-23T20:59:31.555Z,8.80
2023-05-23T21:04:33.107Z,8.70
2023-05-23T21:09:34.642Z,9.30
2023-05-23T21:14:36.284Z,8.90
2023-05-23T21:19:37.840Z,7.90
2023-05-23T21:24:39.569Z,7.70
2023-05-23T21:29:41.180Z,7.30
2023-05-23T21:34:42.787Z,7.80
2023-05-23T21:39:51.137Z,8.90
2023-05-23T21:44:53.760Z,7.60
2023-05-23T21:49:55.307Z,9.70
2023-05-23T21:54:56.835Z,9.00
2023-05-23T21:59:58.733Z,9.80
2023-05-23T22:05:00.648Z,7.60
2023-05-23T22:10:02.196Z,8.60
2023-05-23T22:15:03.959Z,8.10
2023-05-23T22:20:06.456Z,8.20
2023-05-23T22:25:08.664Z,8.00
2023-05-23T22:30:10.579Z,9.30
2023-05-23T22:35:12.105Z,8.70
2023-05-23T22:40:13.624Z,8.40
2023-05-23T22:45:15.399Z,7.60
2023-05-23T22:50:17.799Z,10.10
2023-05-23T22:55:19.397Z,13.30
2023-05-23T23:00:21.554Z,13.00
2023-05-23T23:05:23.118Z,11.70
2023-05-23T23:10:25.005Z,9.20
2023-05-23T23:15:26.670Z,7.90
2023-05-23T23:20:28.587Z,8.10
2023-05-23T23:25:30.509Z,6.70
2023-05-23T23:30:32.162Z,7.70
2023-05-23T23:35:33.684Z,8.50
2023-05-23T23:40:35.249Z,7.40
2023-05-23T23:45:36.779Z,8.20
2023-05-23T23:50:38.306Z,8.00
2023-05-23T23:55:39.889Z,6.90
